createdAt,value
2019-04-14T00:01:12.900Z,4.33
2019-04-14T00:03:45.868Z,4.14
2019-04-14T00:06:13.634Z,4.39
2019-04-14T00:08:41.628Z,4.22
2019-04-14T00:11:10.355Z,4.25
2019-04-14T00:13:39.183Z,4.09
2019-04-14T00:16:07.396Z,4.14
2019-04-14T00:18:35.904Z,4.20
2019-04-14T00:21:04.446Z,4.25
2019-04-14T00:23:32.673Z,4.21
2019-04-14T00:26:25.514Z,4.11
2019-04-14T00:28:53.502Z,4.08
2019-04-14T00:31:21.676Z,4.44
2019-04-14T00:33:50.002Z,4.03
2019-04-14T00:36:39.576Z,4.32
2019-04-14T00:39:18.302Z,4.31
2019-04-14T00:42:08.377Z,4.18
2019-04-14T00:45:04.801Z,4.39
2019-04-14T00:47:50.861Z,3.95
2019-04-14T00:50:10.133Z,4.01
2019-04-14T00:52:37.700Z,3.94
2019-04-14T00:55:07.456Z,4.34
2019-04-14T00:57:35.519Z,4.28
2019-04-14T01:00:03.949Z,4.12
2019-04-14T01:02:31.832Z,4.34
2019-04-14T01:05:00.115Z,4.19
2019-04-14T01:07:28.356Z,4.20
2019-04-14T01:09:55.867Z,4.05
2019-04-14T01:12:23.554Z,4.32
2019-04-14T01:14:51.773Z,4.00
2019-04-14T01:17:19.876Z,4.33
2019-04-14T01:19:48.449Z,4.40
2019-04-14T01:22:16.308Z,4.49
2019-04-14T01:24:44.698Z,4.39
2019-04-14T01:27:12.503Z,4.14
2019-04-14T01:29:40.522Z,4.43
2019-04-14T01:32:08.808Z,4.43
2019-04-14T01:34:37.022Z,4.10
2019-04-14T01:37:05.185Z,4.33
2019-04-14T01:39:32.957Z,4.03
2019-04-14T01:42:00.750Z,4.28
2019-04-14T01:44:28.475Z,4.23
2019-04-14T01:46:56.606Z,3.89
2019-04-14T01:49:24.736Z,4.01
2019-04-14T01:52:14.631Z,3.91
2019-04-14T01:55:04.823Z,4.15
2019-04-14T01:57:37.745Z,4.04
2019-04-14T02:00:44.489Z,4.05
2019-04-14T02:03:12.780Z,3.95
2019-04-14T02:05:40.686Z,4.19
2019-04-14T02:08:09.389Z,3.97
2019-04-14T02:10:36.933Z,3.91
2019-04-14T02:13:04.998Z,4.32
2019-04-14T02:15:33.078Z,4.17
2019-04-14T02:18:00.989Z,3.95
2019-04-14T02:20:29.621Z,3.99
2019-04-14T02:22:57.385Z,3.97
2019-04-14T02:25:25.340Z,4.34
2019-04-14T02:27:53.696Z,3.89
2019-04-14T02:30:26.179Z,4.09
2019-04-14T02:35:55.226Z,4.17
2019-04-14T02:38:29.241Z,3.94
2019-04-14T02:45:50.539Z,3.81
2019-04-14T02:48:30.518Z,3.90
2019-04-14T02:50:38.606Z,3.91
2019-04-14T02:53:16.573Z,4.07
2019-04-14T02:55:46.813Z,3.84
2019-04-14T02:58:16.101Z,3.88
2019-04-14T03:00:43.710Z,3.89
2019-04-14T03:03:10.926Z,3.95
2019-04-14T03:05:45.052Z,3.92
2019-04-14T03:08:06.519Z,3.89
2019-04-14T03:13:15.754Z,4.18
2019-04-14T03:15:39.668Z,4.39
2019-04-14T03:18:37.839Z,4.11
2019-04-14T03:24:24.149Z,3.93
2019-04-14T03:27:00.376Z,4.11
2019-04-14T03:29:27.176Z,4.17
2019-04-14T03:32:15.169Z,4.14
2019-04-14T03:39:33.448Z,3.83
2019-04-14T03:42:00.623Z,4.03
2019-04-14T03:44:33.172Z,3.81
2019-04-14T03:47:02.285Z,3.78
2019-04-14T03:51:57.961Z,3.69
2019-04-14T03:54:19.128Z,3.73
2019-04-14T03:56:48.942Z,3.80
2019-04-14T03:59:17.568Z,3.80
2019-04-14T04:01:45.713Z,3.81
2019-04-14T04:04:14.033Z,3.80
2019-04-14T04:06:42.171Z,3.75
2019-04-14T04:09:10.452Z,3.80
2019-04-14T04:11:39.018Z,4.00
2019-04-14T04:14:07.435Z,3.99
2019-04-14T04:17:12.761Z,3.88
2019-04-14T04:19:51.416Z,3.85
2019-04-14T04:22:54.364Z,3.71
2019-04-14T04:25:36.133Z,3.57
2019-04-14T04:28:26.120Z,3.97
2019-04-14T04:30:58.697Z,3.81
2019-04-14T04:33:43.622Z,3.75
2019-04-14T04:36:24.869Z,3.77
2019-04-14T04:38:55.375Z,3.83
2019-04-14T04:41:23.269Z,3.57
2019-04-14T04:43:51.822Z,3.61
2019-04-14T04:46:19.774Z,3.92
2019-04-14T04:48:58.043Z,3.64
2019-04-14T04:51:16.767Z,3.71
2019-04-14T04:53:44.308Z,3.56
2019-04-14T04:56:12.215Z,3.54
2019-04-14T04:58:39.912Z,3.42
2019-04-14T05:01:07.708Z,3.53
2019-04-14T05:03:36.392Z,3.46
2019-04-14T05:06:41.629Z,3.49
2019-04-14T05:09:16.804Z,3.38
2019-04-14T05:12:04.461Z,3.45
2019-04-14T05:14:41.240Z,3.59
2019-04-14T05:17:09.974Z,3.60
2019-04-14T05:19:39.419Z,3.65
2019-04-14T05:22:07.079Z,3.53
2019-04-14T05:24:35.343Z,3.52
2019-04-14T05:27:03.625Z,3.58
2019-04-14T05:29:31.838Z,3.67
2019-04-14T05:32:00.137Z,3.48
2019-04-14T05:34:28.331Z,3.56
2019-04-14T05:36:56.383Z,3.57
2019-04-14T05:39:24.314Z,3.63
2019-04-14T05:42:00.345Z,3.63
2019-04-14T05:44:21.364Z,3.58
2019-04-14T05:46:49.412Z,3.59
2019-04-14T05:49:27.554Z,3.56
2019-04-14T05:51:46.326Z,3.63
2019-04-14T05:54:14.218Z,3.52
2019-04-14T05:56:42.578Z,3.56
2019-04-14T05:59:11.284Z,3.42
2019-04-14T06:01:39.210Z,3.52
2019-04-14T06:04:07.209Z,3.47
2019-04-14T06:06:34.748Z,3.48
2019-04-14T06:09:02.257Z,3.50
2019-04-14T06:11:29.709Z,3.58
2019-04-14T06:13:57.210Z,3.46
2019-04-14T06:16:24.704Z,3.55
2019-04-14T06:18:52.149Z,3.49
2019-04-14T06:21:19.666Z,3.62
2019-04-14T06:23:47.144Z,3.64
2019-04-14T06:26:14.641Z,3.56
2019-04-14T06:28:42.145Z,3.62
2019-04-14T06:31:32.929Z,3.73
2019-04-14T06:34:07.680Z,3.74
2019-04-14T06:36:44.779Z,3.70
2019-04-14T06:39:18.501Z,3.74
2019-04-14T06:41:45.967Z,3.75
2019-04-14T06:44:13.457Z,3.76
2019-04-14T06:46:40.929Z,3.79
2019-04-14T06:49:08.472Z,3.97
2019-04-14T06:51:35.916Z,3.73
2019-04-14T06:54:04.431Z,3.82
2019-04-14T06:56:31.942Z,4.01
2019-04-14T06:58:59.421Z,3.98
2019-04-14T07:01:26.927Z,3.89
2019-04-14T07:03:54.402Z,3.92
2019-04-14T07:06:21.916Z,3.88
2019-04-14T07:08:49.412Z,3.94
2019-04-14T07:11:17.013Z,4.23
2019-04-14T07:13:47.873Z,4.30
2019-04-14T07:16:13.894Z,4.48
2019-04-14T07:18:41.450Z,4.32
2019-04-14T07:21:11.206Z,4.50
2019-04-14T07:23:38.682Z,4.38
2019-04-14T07:26:06.141Z,4.37
2019-04-14T07:28:33.682Z,4.38
2019-04-14T07:31:09.770Z,4.33
2019-04-14T07:34:14.792Z,4.39
2019-04-14T07:36:53.683Z,4.40
2019-04-14T07:39:49.632Z,4.30
2019-04-14T07:42:29.169Z,4.29
2019-04-14T07:45:10.797Z,4.31
2019-04-14T07:47:49.365Z,4.45
2019-04-14T07:50:46.117Z,4.22
2019-04-14T07:53:33.309Z,4.35
2019-04-14T07:56:22.109Z,4.38
2019-04-14T07:59:12.054Z,4.33
2019-04-14T08:01:51.325Z,4.34
2019-04-14T08:04:22.108Z,4.34
2019-04-14T08:06:51.596Z,4.48
2019-04-14T08:09:19.083Z,4.56
2019-04-14T08:11:46.553Z,4.54
2019-04-14T08:14:14.079Z,4.39
2019-04-14T08:16:41.537Z,4.56
2019-04-14T08:19:09.087Z,4.57
2019-04-14T08:21:36.528Z,4.58
2019-04-14T08:24:04.440Z,4.77
2019-04-14T08:26:32.252Z,4.79
2019-04-14T08:28:59.819Z,4.72
2019-04-14T08:31:27.330Z,4.85
2019-04-14T08:33:54.776Z,4.81
2019-04-14T08:36:22.301Z,4.64
2019-04-14T08:38:52.217Z,4.85
2019-04-14T08:41:19.727Z,4.74
2019-04-14T08:43:57.236Z,4.73
2019-04-14T08:46:45.721Z,4.72
2019-04-14T08:49:35.590Z,4.83
2019-04-14T08:52:10.486Z,4.73
2019-04-14T08:54:43.515Z,4.90
2019-04-14T08:57:17.772Z,4.69
2019-04-14T09:00:07.182Z,4.79
2019-04-14T09:02:54.221Z,4.90
2019-04-14T09:05:38.658Z,5.02
2019-04-14T09:08:11.822Z,5.15
2019-04-14T09:10:41.806Z,5.23
2019-04-14T09:13:09.305Z,5.22
2019-04-14T09:15:36.982Z,5.18
2019-04-14T09:18:04.474Z,5.42
2019-04-14T09:20:32.038Z,5.49
2019-04-14T09:22:59.628Z,5.34
2019-04-14T09:25:27.249Z,5.43
2019-04-14T09:27:54.771Z,5.39
2019-04-14T09:30:22.393Z,5.38
2019-04-14T09:32:49.869Z,5.35
2019-04-14T09:35:17.527Z,5.41
2019-04-14T09:37:45.061Z,5.64
2019-04-14T09:40:12.568Z,5.39
2019-04-14T09:42:40.077Z,5.49
2019-04-14T09:45:07.824Z,5.65
2019-04-14T09:47:35.376Z,5.34
2019-04-14T09:50:03.365Z,5.93
2019-04-14T09:52:30.886Z,5.82
2019-04-14T09:54:58.451Z,5.95
2019-04-14T09:57:25.975Z,6.09
2019-04-14T09:59:53.478Z,5.98
2019-04-14T10:02:23.158Z,5.95
2019-04-14T10:04:50.681Z,6.23
2019-04-14T10:07:18.219Z,5.96
2019-04-14T10:09:45.886Z,5.58
2019-04-14T10:12:13.509Z,5.54
2019-04-14T10:14:41.064Z,5.69
2019-04-14T10:17:08.698Z,5.49
2019-04-14T10:19:36.189Z,5.73
2019-04-14T10:22:03.841Z,5.82
2019-04-14T10:24:31.467Z,5.73
2019-04-14T10:26:58.997Z,5.81
2019-04-14T10:29:26.448Z,5.76
2019-04-14T10:31:53.912Z,5.92
2019-04-14T10:34:21.414Z,5.85
2019-04-14T10:36:48.924Z,5.99
2019-04-14T10:39:16.546Z,6.04
2019-04-14T10:41:44.138Z,5.99
2019-04-14T10:44:11.669Z,6.22
2019-04-14T10:46:39.224Z,6.22
2019-04-14T10:49:06.900Z,6.08
2019-04-14T10:51:34.464Z,6.13
2019-04-14T10:54:01.995Z,6.19
2019-04-14T10:56:30.098Z,6.15
2019-04-14T10:58:57.649Z,6.11
2019-04-14T11:01:25.293Z,6.06
2019-04-14T11:03:52.906Z,6.04
2019-04-14T11:06:39.908Z,6.00
2019-04-14T11:09:12.196Z,5.97
2019-04-14T11:11:39.916Z,6.02
2019-04-14T11:14:07.497Z,5.90
2019-04-14T11:16:35.231Z,5.91
2019-04-14T11:19:02.732Z,6.02
2019-04-14T11:21:41.865Z,6.05
2019-04-14T11:24:01.515Z,6.06
2019-04-14T11:26:32.369Z,6.10
2019-04-14T11:28:59.908Z,6.05
2019-04-14T11:31:47.673Z,5.91
2019-04-14T11:34:16.079Z,5.98
2019-04-14T11:37:03.647Z,5.84
2019-04-14T11:39:31.161Z,5.86
2019-04-14T11:41:58.684Z,5.83
2019-04-14T11:44:26.339Z,5.81
2019-04-14T11:46:53.860Z,6.00
2019-04-14T11:49:21.478Z,6.09
2019-04-14T11:51:55.073Z,5.96
2019-04-14T11:54:18.468Z,6.10
2019-04-14T11:56:45.945Z,6.07
2019-04-14T11:59:13.471Z,6.07
2019-04-14T12:01:59.913Z,6.25
2019-04-14T12:04:31.422Z,6.20
2019-04-14T12:07:30.583Z,6.13
2019-04-14T12:10:06.927Z,6.10
2019-04-14T12:12:34.582Z,6.08
2019-04-14T12:15:02.065Z,6.16
2019-04-14T12:17:29.713Z,6.28
2019-04-14T12:19:57.256Z,6.35
2019-04-14T12:22:24.739Z,6.32
2019-04-14T12:24:52.269Z,6.29
2019-04-14T12:27:19.770Z,6.25
2019-04-14T12:29:47.962Z,6.23
2019-04-14T12:32:15.649Z,6.27
2019-04-14T12:34:43.233Z,6.24
2019-04-14T12:37:10.826Z,6.30
2019-04-14T12:39:38.457Z,6.33
2019-04-14T12:42:37.939Z,6.33
2019-04-14T12:45:25.356Z,6.26
2019-04-14T12:48:03.565Z,6.33
2019-04-14T12:50:34.838Z,6.37
2019-04-14T12:53:02.751Z,6.30
2019-04-14T12:55:30.396Z,6.29
2019-04-14T12:58:00.488Z,6.16
2019-04-14T13:00:40.383Z,6.36
2019-04-14T13:03:08.059Z,6.37
2019-04-14T13:05:35.601Z,6.45
2019-04-14T13:08:03.114Z,6.36
2019-04-14T13:10:30.623Z,6.44
2019-04-14T13:12:58.349Z,6.43
2019-04-14T13:15:25.830Z,6.47
2019-04-14T13:17:53.411Z,6.51
2019-04-14T13:20:21.070Z,6.56
2019-04-14T13:22:48.569Z,6.54
2019-04-14T13:25:16.127Z,6.48
2019-04-14T13:27:43.598Z,6.56
2019-04-14T13:30:13.236Z,6.60
2019-04-14T13:32:40.846Z,6.62
2019-04-14T13:35:08.612Z,6.61
2019-04-14T13:37:36.197Z,6.52
2019-04-14T13:40:04.363Z,6.47
2019-04-14T13:42:32.478Z,6.49
2019-04-14T13:45:00.020Z,6.54
2019-04-14T13:47:27.582Z,6.51
2019-04-14T13:49:55.596Z,6.45
2019-04-14T13:52:23.191Z,6.59
2019-04-14T13:54:50.855Z,6.54
2019-04-14T13:57:18.419Z,6.59
2019-04-14T13:59:45.929Z,6.50
2019-04-14T14:02:13.491Z,6.58
2019-04-14T14:04:41.205Z,6.53
2019-04-14T14:07:09.077Z,6.59
2019-04-14T14:09:36.871Z,6.32
2019-04-14T14:12:20.149Z,6.34
2019-04-14T14:15:10.073Z,6.38
2019-04-14T14:17:49.703Z,6.56
2019-04-14T14:20:40.156Z,6.46
2019-04-14T14:23:27.741Z,6.44
2019-04-14T14:25:59.681Z,6.63
2019-04-14T14:28:27.240Z,6.56
2019-04-14T14:30:54.846Z,6.58
2019-04-14T14:33:22.390Z,6.48
2019-04-14T14:35:49.964Z,6.57
2019-04-14T14:38:17.527Z,6.40
2019-04-14T14:40:45.090Z,6.42
2019-04-14T14:43:12.596Z,6.39
2019-04-14T14:46:05.693Z,6.41
2019-04-14T14:48:41.271Z,6.52
2019-04-14T14:51:37.268Z,6.58
2019-04-14T14:54:05.103Z,6.45
2019-04-14T14:56:32.718Z,6.60
2019-04-14T14:59:00.499Z,6.45
2019-04-14T15:01:28.307Z,6.59
2019-04-14T15:03:56.133Z,6.51
2019-04-14T15:06:23.891Z,6.55
2019-04-14T15:08:51.635Z,6.50
2019-04-14T15:11:19.369Z,6.51
2019-04-14T15:13:46.948Z,6.43
2019-04-14T15:16:14.679Z,6.51
2019-04-14T15:18:42.211Z,6.53
2019-04-14T15:21:10.319Z,6.54
2019-04-14T15:23:37.908Z,6.55
2019-04-14T15:26:05.705Z,6.56
2019-04-14T15:28:33.366Z,6.61
2019-04-14T15:31:01.057Z,6.45
2019-04-14T15:33:28.769Z,6.43
2019-04-14T15:35:56.405Z,6.44
2019-04-14T15:38:24.154Z,6.46
2019-04-14T15:40:51.868Z,6.62
2019-04-14T15:43:19.711Z,6.55
2019-04-14T15:45:47.529Z,6.68
2019-04-14T15:48:15.095Z,6.69
2019-04-14T15:50:42.735Z,6.56
2019-04-14T15:53:10.277Z,6.55
2019-04-14T15:55:38.053Z,6.57
2019-04-14T15:58:19.713Z,6.37
2019-04-14T16:01:21.894Z,6.54
2019-04-14T16:04:17.917Z,6.58
2019-04-14T16:07:03.842Z,6.33
2019-04-14T16:09:40.322Z,6.45
2019-04-14T16:12:31.898Z,6.50
2019-04-14T16:15:18.845Z,6.50
2019-04-14T16:18:18.045Z,6.43
2019-04-14T16:20:45.847Z,6.38
2019-04-14T16:23:13.820Z,6.41
2019-04-14T16:26:03.974Z,6.41
2019-04-14T16:28:47.569Z,6.35
2019-04-14T16:31:36.033Z,6.32
2019-04-14T16:34:26.260Z,6.29
2019-04-14T16:36:54.791Z,6.24
2019-04-14T16:39:22.768Z,6.20
2019-04-14T16:41:50.846Z,6.20
2019-04-14T16:44:19.196Z,6.18
2019-04-14T16:46:47.240Z,6.12
2019-04-14T16:49:15.330Z,6.37
2019-04-14T16:51:50.577Z,6.27
2019-04-14T16:54:41.122Z,6.10
2019-04-14T16:57:29.039Z,6.05
2019-04-14T16:59:56.650Z,6.20
2019-04-14T17:02:25.604Z,6.10
2019-04-14T17:04:53.632Z,6.24
2019-04-14T17:07:21.490Z,6.13
2019-04-14T17:09:49.827Z,6.17
2019-04-14T17:12:18.200Z,6.24
2019-04-14T17:15:17.577Z,6.07
2019-04-14T17:18:08.400Z,5.83
2019-04-14T17:21:01.755Z,5.99
2019-04-14T17:23:42.903Z,6.16
2019-04-14T17:26:20.499Z,6.04
2019-04-14T17:29:08.231Z,6.14
2019-04-14T17:31:54.498Z,6.19
2019-04-14T17:34:44.201Z,6.02
2019-04-14T17:37:31.612Z,5.97
2019-04-14T17:40:12.427Z,5.99
2019-04-14T17:42:53.140Z,6.07
2019-04-14T17:45:44.262Z,5.96
2019-04-14T17:48:28.374Z,6.01
2019-04-14T17:51:07.079Z,5.96
2019-04-14T17:53:42.838Z,5.96
2019-04-14T17:56:30.464Z,5.96
2019-04-14T17:59:18.140Z,5.90
2019-04-14T18:02:00.445Z,6.06
2019-04-14T18:04:57.178Z,5.95
2019-04-14T18:07:31.105Z,5.95
2019-04-14T18:10:17.530Z,5.87
2019-04-14T18:13:17.052Z,5.89
2019-04-14T18:16:04.630Z,6.09
2019-04-14T18:18:58.141Z,6.05
2019-04-14T18:21:26.237Z,6.05
2019-04-14T18:23:54.357Z,5.86
2019-04-14T18:26:22.622Z,5.95
2019-04-14T18:28:59.063Z,6.02
2019-04-14T18:31:45.621Z,5.88
2019-04-14T18:34:51.550Z,5.77
2019-04-14T18:37:42.296Z,5.98
2019-04-14T18:40:29.735Z,5.79
2019-04-14T18:43:06.183Z,5.70
2019-04-14T18:45:45.059Z,5.68
2019-04-14T18:48:31.087Z,5.84
2019-04-14T18:51:18.517Z,5.84
2019-04-14T18:53:51.672Z,5.79
2019-04-14T18:56:39.024Z,5.70
2019-04-14T18:59:25.354Z,5.66
2019-04-14T19:01:53.789Z,5.71
2019-04-14T19:04:21.668Z,5.76
2019-04-14T19:06:49.498Z,5.62
2019-04-14T19:09:17.649Z,5.67
2019-04-14T19:12:23.438Z,5.67
2019-04-14T19:14:55.372Z,5.64
2019-04-14T19:17:35.068Z,5.49
2019-04-14T19:20:02.963Z,5.55
2019-04-14T19:22:30.814Z,5.64
2019-04-14T19:25:07.979Z,5.59
2019-04-14T19:27:30.920Z,5.66
2019-04-14T19:29:58.803Z,5.61
2019-04-14T19:32:26.998Z,5.73
2019-04-14T19:34:54.621Z,5.75
2019-04-14T19:37:23.298Z,5.76
2019-04-14T19:39:50.851Z,5.48
2019-04-14T19:42:19.047Z,5.58
2019-04-14T19:44:46.641Z,5.57
2019-04-14T19:47:15.943Z,5.74
2019-04-14T19:49:43.577Z,5.50
2019-04-14T19:52:11.983Z,5.51
2019-04-14T19:54:40.641Z,5.63
2019-04-14T19:57:08.205Z,5.50
2019-04-14T19:59:35.824Z,5.47
2019-04-14T20:02:03.356Z,5.68
2019-04-14T20:04:30.954Z,5.66
2019-04-14T20:06:58.503Z,5.72
2019-04-14T20:09:27.256Z,5.61
2019-04-14T20:11:55.031Z,5.82
2019-04-14T20:14:22.649Z,5.64
2019-04-14T20:17:08.808Z,5.54
2019-04-14T20:19:59.022Z,5.56
2019-04-14T20:22:35.322Z,5.51
2019-04-14T20:25:08.304Z,5.51
2019-04-14T20:28:04.661Z,5.52
2019-04-14T20:30:39.153Z,5.59
2019-04-14T20:33:06.760Z,5.60
2019-04-14T20:35:34.372Z,5.58
2019-04-14T20:38:01.971Z,5.46
2019-04-14T20:40:29.590Z,5.39
2019-04-14T20:42:57.129Z,5.26
2019-04-14T20:45:24.707Z,5.19
2019-04-14T20:47:52.359Z,5.24
2019-04-14T20:50:19.967Z,5.24
2019-04-14T20:52:47.465Z,5.28
2019-04-14T20:55:14.928Z,5.50
2019-04-14T20:57:42.592Z,5.07
2019-04-14T21:00:10.316Z,5.31
2019-04-14T21:03:03.345Z,5.51
2019-04-14T21:05:56.837Z,5.65
2019-04-14T21:08:42.440Z,5.35
2019-04-14T21:11:23.527Z,5.17
2019-04-14T21:14:17.089Z,5.25
2019-04-14T21:17:10.236Z,4.98
2019-04-14T21:20:01.616Z,4.95
2019-04-14T21:22:48.706Z,5.01
2019-04-14T21:25:36.858Z,4.82
2019-04-14T21:28:39.020Z,4.91
2019-04-14T21:31:19.069Z,4.98
2019-04-14T21:33:54.156Z,4.95
2019-04-14T21:36:41.137Z,5.07
2019-04-14T21:39:28.323Z,5.37
2019-04-14T21:41:55.860Z,5.04
2019-04-14T21:44:23.409Z,5.35
2019-04-14T21:46:50.929Z,5.44
2019-04-14T21:49:18.384Z,5.19
2019-04-14T21:52:11.237Z,5.13
2019-04-14T21:54:40.617Z,4.96
2019-04-14T21:57:28.614Z,4.91
2019-04-14T22:00:14.160Z,5.20
2019-04-14T22:03:19.101Z,4.82
2019-04-14T22:05:53.244Z,5.03
2019-04-14T22:08:27.175Z,5.18
2019-04-14T22:10:59.901Z,4.91
2019-04-14T22:13:27.366Z,4.94
2019-04-14T22:15:54.882Z,5.12
2019-04-14T22:18:22.342Z,4.67
2019-04-14T22:20:50.046Z,4.72
2019-04-14T22:23:17.611Z,4.64
2019-04-14T22:25:45.184Z,4.67
2019-04-14T22:28:12.711Z,4.60
2019-04-14T22:30:41.485Z,4.93
2019-04-14T22:33:08.985Z,4.59
2019-04-14T22:35:36.631Z,4.57
2019-04-14T22:38:04.145Z,4.51
2019-04-14T22:40:31.730Z,4.45
2019-04-14T22:42:59.266Z,4.79
2019-04-14T22:45:27.868Z,4.75
2019-04-14T22:47:55.351Z,4.78
2019-04-14T22:50:22.845Z,4.59
2019-04-14T22:52:50.329Z,4.93
2019-04-14T22:55:17.857Z,4.54
2019-04-14T22:57:45.307Z,4.75
2019-04-14T23:00:18.317Z,4.53
2019-04-14T23:02:54.586Z,4.86
2019-04-14T23:05:44.437Z,4.65
2019-04-14T23:08:25.089Z,4.82
2019-04-14T23:11:11.938Z,4.53
2019-04-14T23:14:07.797Z,4.81
2019-04-14T23:16:53.702Z,4.68
2019-04-14T23:19:29.289Z,4.44
2019-04-14T23:22:28.640Z,4.66
2019-04-14T23:24:56.615Z,4.89
2019-04-14T23:27:24.430Z,4.48
2019-04-14T23:29:52.203Z,4.62
2019-04-14T23:32:19.972Z,4.60
2019-04-14T23:34:47.687Z,4.68
2019-04-14T23:37:15.228Z,4.52
2019-04-14T23:39:42.853Z,4.53
2019-04-14T23:42:10.374Z,4.51
2019-04-14T23:44:37.841Z,4.48
2019-04-14T23:47:05.321Z,4.49
2019-04-14T23:49:32.793Z,4.48
2019-04-14T23:52:00.269Z,4.51
2019-04-14T23:54:27.887Z,4.63
2019-04-14T23:57:05.313Z,4.64
2019-04-14T23:59:24.747Z,4.37
